createdAt,value
2019-03-30T00:00:33.436Z,15.63
2019-03-30T00:03:06.146Z,17.20
2019-03-30T00:05:40.445Z,15.53
2019-03-30T00:08:19.243Z,16.55
2019-03-30T00:11:00.532Z,16.48
2019-03-30T00:13:33.445Z,16.67
2019-03-30T00:18:41.332Z,16.62
2019-03-30T00:21:13.857Z,16.30
2019-03-30T00:23:46.527Z,15.95
2019-03-30T00:26:18.881Z,17.25
2019-03-30T00:28:51.348Z,16.17
2019-03-30T00:31:24.033Z,16.10
2019-03-30T00:33:56.477Z,16.23
2019-03-30T00:36:28.865Z,16.40
2019-03-30T00:39:01.575Z,16.42
2019-03-30T00:41:35.573Z,16.15
2019-03-30T00:44:08.294Z,16.67
2019-03-30T00:46:40.685Z,16.73
2019-03-30T00:49:13.348Z,17.05
2019-03-30T00:51:45.711Z,16.65
2019-03-30T00:54:18.303Z,16.87
2019-03-30T00:56:50.668Z,16.57
2019-03-30T00:59:23.315Z,18.32
2019-03-30T01:01:55.702Z,16.60
2019-03-30T01:04:28.291Z,16.37
2019-03-30T01:07:00.785Z,16.32
2019-03-30T01:09:35.506Z,16.93
2019-03-30T01:14:39.640Z,16.90
2019-03-30T01:17:12.054Z,18.35
2019-03-30T01:19:44.647Z,16.93
2019-03-30T01:22:17.384Z,16.37
2019-03-30T01:24:49.805Z,16.42
2019-03-30T01:27:23.537Z,18.55
2019-03-30T01:29:56.059Z,17.40
2019-03-30T01:32:28.534Z,17.10
2019-03-30T01:35:00.842Z,17.45
2019-03-30T01:37:33.488Z,18.32
2019-03-30T01:40:08.424Z,16.75
2019-03-30T01:42:40.757Z,18.85
2019-03-30T01:45:13.312Z,17.67
2019-03-30T01:47:47.478Z,18.50
2019-03-30T01:52:51.706Z,16.90
2019-03-30T01:55:24.307Z,16.67
2019-03-30T01:57:56.706Z,17.75
2019-03-30T02:00:29.303Z,18.27
2019-03-30T02:03:01.665Z,17.30
2019-03-30T02:05:34.057Z,18.05
2019-03-30T02:08:06.366Z,17.50
2019-03-30T02:10:46.298Z,16.77
2019-03-30T02:13:18.676Z,17.40
2019-03-30T02:15:51.288Z,16.05
2019-03-30T02:18:23.624Z,16.50
2019-03-30T02:20:56.314Z,16.82
2019-03-30T02:23:31.703Z,16.90
2019-03-30T02:26:04.592Z,17.40
2019-03-30T02:28:37.018Z,17.37
2019-03-30T02:31:09.768Z,16.40
2019-03-30T02:33:42.292Z,16.77
2019-03-30T02:36:14.765Z,16.70
2019-03-30T02:38:47.295Z,17.65
2019-03-30T02:41:19.690Z,19.00
2019-03-30T02:43:53.393Z,17.65
2019-03-30T02:48:57.478Z,17.37
2019-03-30T02:54:01.426Z,17.00
2019-03-30T02:56:33.965Z,16.80
2019-03-30T02:59:06.300Z,17.02
2019-03-30T03:01:38.755Z,16.90
2019-03-30T03:04:11.295Z,18.92
2019-03-30T03:06:43.594Z,18.12
2019-03-30T03:09:16.060Z,18.90
2019-03-30T03:11:48.501Z,17.73
2019-03-30T03:16:52.677Z,18.02
2019-03-30T03:19:25.696Z,17.20
2019-03-30T03:21:58.170Z,18.73
2019-03-30T03:27:11.291Z,17.82
2019-03-30T03:29:44.313Z,19.60
2019-03-30T03:32:16.692Z,17.82
2019-03-30T03:34:49.322Z,17.82
2019-03-30T03:37:21.765Z,16.85
2019-03-30T03:39:54.366Z,17.27
2019-03-30T03:42:27.155Z,18.30
2019-03-30T03:44:59.458Z,17.20
2019-03-30T03:50:03.547Z,17.82
2019-03-30T03:52:36.370Z,18.20
2019-03-30T03:55:10.377Z,19.40
2019-03-30T03:57:45.670Z,19.40
2019-03-30T04:00:18.346Z,18.15
2019-03-30T04:02:51.782Z,19.23
2019-03-30T04:05:27.969Z,19.57
2019-03-30T04:08:05.611Z,19.67
2019-03-30T04:10:41.471Z,18.10
2019-03-30T04:15:49.490Z,18.13
2019-03-30T04:18:22.260Z,17.33
2019-03-30T04:20:59.683Z,18.40
2019-03-30T04:23:33.210Z,18.43
2019-03-30T04:26:14.937Z,16.62
2019-03-30T04:29:17.290Z,17.30
2019-03-30T04:31:58.036Z,18.97
2019-03-30T04:34:31.409Z,18.40
2019-03-30T04:37:03.705Z,20.85
2019-03-30T04:58:44.626Z,20.63
2019-03-30T05:01:17.064Z,19.30
2019-03-30T05:03:49.887Z,20.20
2019-03-30T05:06:23.501Z,20.90
2019-03-30T05:11:27.642Z,19.23
2019-03-30T05:14:00.288Z,19.93
2019-03-30T05:16:32.779Z,19.90
2019-03-30T05:19:05.680Z,22.80
2019-03-30T05:21:38.046Z,19.33
2019-03-30T05:24:10.574Z,18.00
2019-03-30T05:26:43.277Z,19.63
2019-03-30T05:31:49.294Z,20.17
2019-03-30T05:34:21.619Z,18.43
2019-03-30T05:36:55.523Z,17.33
2019-03-30T05:39:28.336Z,18.33
2019-03-30T05:42:02.289Z,19.70
2019-03-30T05:44:34.680Z,19.17
2019-03-30T05:47:37.295Z,19.07
2019-03-30T05:56:34.785Z,18.83
2019-03-30T05:59:07.283Z,19.62
2019-03-30T06:01:40.627Z,19.50
2019-03-30T06:04:15.539Z,19.57
2019-03-30T06:06:47.941Z,18.87
2019-03-30T06:09:20.335Z,19.05
2019-03-30T06:11:52.701Z,19.47
2019-03-30T06:14:25.304Z,19.57
2019-03-30T06:16:59.534Z,20.57
2019-03-30T06:19:31.877Z,19.52
2019-03-30T06:22:04.291Z,21.02
2019-03-30T06:24:39.732Z,18.70
2019-03-30T06:27:12.304Z,20.10
2019-03-30T06:29:44.725Z,19.15
2019-03-30T06:32:17.300Z,18.77
2019-03-30T06:34:49.783Z,18.48
2019-03-30T06:37:22.295Z,19.82
2019-03-30T06:39:54.682Z,19.00
2019-03-30T06:42:27.058Z,18.48
2019-03-30T06:44:59.491Z,18.52
2019-03-30T06:47:31.815Z,18.57
2019-03-30T06:50:05.630Z,18.82
2019-03-30T06:52:42.711Z,18.57
2019-03-30T06:55:14.290Z,19.73
2019-03-30T06:57:46.569Z,18.82
2019-03-30T07:00:22.285Z,19.20
2019-03-30T07:05:31.419Z,18.85
2019-03-30T07:10:39.332Z,19.50
2019-03-30T07:13:24.296Z,18.52
2019-03-30T07:21:06.305Z,19.67
2019-03-30T07:23:38.643Z,18.98
2019-03-30T07:26:11.189Z,19.02
2019-03-30T07:28:46.959Z,19.05
2019-03-30T07:31:18.285Z,18.80
2019-03-30T07:33:52.355Z,18.30
2019-03-30T07:38:56.393Z,19.37
2019-03-30T07:41:29.071Z,19.63
2019-03-30T07:44:01.550Z,19.57
2019-03-30T07:46:38.316Z,20.12
2019-03-30T07:49:10.597Z,19.17
2019-03-30T07:51:43.092Z,18.37
2019-03-30T07:54:18.405Z,17.07
2019-03-30T07:57:04.581Z,18.13
2019-03-30T08:02:07.736Z,18.60
2019-03-30T08:04:42.056Z,17.15
2019-03-30T08:12:21.600Z,16.67
2019-03-30T08:14:54.300Z,16.80
2019-03-30T08:17:27.302Z,17.75
2019-03-30T08:20:22.647Z,18.15
2019-03-30T08:25:58.270Z,16.37
2019-03-30T08:28:55.077Z,17.17
2019-03-30T08:31:23.687Z,16.85
2019-03-30T08:33:56.748Z,16.45
2019-03-30T08:36:31.254Z,17.00
2019-03-30T08:39:07.495Z,16.55
2019-03-30T08:41:40.348Z,16.70
2019-03-30T08:44:12.890Z,16.20
2019-03-30T08:46:45.419Z,16.02
2019-03-30T08:51:50.719Z,16.67
2019-03-30T08:54:23.402Z,15.40
2019-03-30T08:59:29.288Z,16.90
2019-03-30T09:02:01.849Z,16.62
2019-03-30T09:04:34.604Z,16.60
2019-03-30T09:07:07.718Z,16.75
2019-03-30T09:09:40.432Z,15.78
2019-03-30T09:12:13.316Z,15.75
2019-03-30T09:17:20.786Z,16.05
2019-03-30T09:19:53.494Z,16.37
2019-03-30T09:22:26.122Z,16.57
2019-03-30T09:25:00.523Z,15.72
2019-03-30T09:27:33.409Z,15.85
2019-03-30T09:32:44.837Z,15.23
2019-03-30T09:35:16.320Z,15.65
2019-03-30T09:37:48.904Z,16.23
2019-03-30T09:40:21.477Z,15.43
2019-03-30T09:42:54.295Z,15.77
2019-03-30T09:45:26.976Z,15.05
2019-03-30T09:47:59.824Z,15.95
2019-03-30T09:50:32.387Z,16.00
2019-03-30T09:55:37.095Z,14.68
2019-03-30T09:58:09.900Z,14.98
2019-03-30T10:00:42.384Z,15.15
2019-03-30T10:05:46.817Z,15.03
2019-03-30T10:08:19.402Z,15.13
2019-03-30T10:10:51.910Z,15.50
2019-03-30T10:13:24.423Z,15.00
2019-03-30T10:15:57.315Z,15.23
2019-03-30T10:18:29.803Z,15.20
2019-03-30T10:21:02.486Z,15.13
2019-03-30T10:23:35.335Z,16.50
2019-03-30T10:28:41.091Z,16.05
2019-03-30T10:31:13.786Z,15.35
2019-03-30T10:33:46.469Z,16.23
2019-03-30T10:36:22.048Z,15.78
2019-03-30T10:38:54.845Z,16.20
2019-03-30T10:41:30.496Z,16.02
2019-03-30T10:44:03.491Z,14.93
2019-03-30T10:46:36.147Z,14.90
2019-03-30T10:49:08.629Z,15.03
2019-03-30T10:51:46.728Z,14.93
2019-03-30T10:54:15.631Z,12.65
2019-03-30T10:56:48.517Z,12.98
2019-03-30T10:59:21.306Z,15.00
2019-03-30T11:01:53.760Z,12.78
2019-03-30T11:04:26.437Z,12.03
2019-03-30T11:09:32.212Z,9.18
2019-03-30T11:12:08.877Z,8.40
2019-03-30T11:14:41.553Z,9.10
2019-03-30T11:17:21.288Z,11.15
2019-03-30T11:19:56.915Z,10.88
2019-03-30T11:22:29.576Z,11.65
2019-03-30T11:25:08.513Z,12.03
2019-03-30T11:27:41.605Z,11.88
2019-03-30T11:30:18.171Z,11.90
2019-03-30T11:32:50.727Z,11.05
2019-03-30T11:35:24.822Z,11.57
2019-03-30T11:37:57.534Z,10.55
2019-03-30T11:40:30.304Z,10.63
2019-03-30T11:43:03.098Z,11.08
2019-03-30T11:45:35.516Z,10.63
2019-03-30T11:48:08.019Z,7.85
2019-03-30T11:50:40.479Z,7.37
2019-03-30T11:53:14.657Z,7.08
2019-03-30T11:55:50.294Z,8.43
2019-03-30T11:58:22.688Z,8.75
2019-03-30T12:00:55.530Z,8.63
2019-03-30T12:03:28.784Z,9.25
2019-03-30T12:06:01.336Z,8.90
2019-03-30T12:11:05.593Z,9.05
2019-03-30T12:13:39.303Z,9.50
2019-03-30T12:18:43.538Z,9.50
2019-03-30T12:21:16.345Z,9.08
2019-03-30T12:23:49.295Z,8.88
2019-03-30T12:28:53.778Z,9.65
2019-03-30T12:31:26.354Z,9.13
2019-03-30T12:34:00.404Z,9.18
2019-03-30T12:39:06.079Z,8.55
2019-03-30T12:44:11.054Z,8.65
2019-03-30T12:46:43.616Z,7.67
2019-03-30T12:49:16.298Z,8.45
2019-03-30T12:51:50.614Z,8.33
2019-03-30T12:54:23.292Z,7.47
2019-03-30T12:56:55.692Z,7.97
2019-03-30T12:59:28.426Z,7.80
2019-03-30T13:04:32.631Z,7.35
2019-03-30T13:07:05.303Z,7.15
2019-03-30T13:09:38.369Z,6.87
2019-03-30T13:12:11.429Z,6.78
2019-03-30T13:14:44.442Z,6.92
2019-03-30T13:17:17.388Z,7.42
2019-03-30T13:22:21.692Z,7.83
2019-03-30T13:24:54.332Z,7.37
2019-03-30T13:27:26.740Z,8.33
2019-03-30T13:29:59.290Z,7.87
2019-03-30T13:32:31.614Z,7.35
2019-03-30T13:35:05.723Z,7.72
2019-03-30T13:37:39.035Z,6.78
2019-03-30T13:40:15.162Z,6.28
2019-03-30T13:42:59.035Z,7.37
2019-03-30T13:45:34.330Z,6.50
2019-03-30T13:50:40.689Z,6.92
2019-03-30T13:53:16.295Z,6.47
2019-03-30T14:00:52.408Z,3.10
2019-03-30T14:03:24.866Z,4.40
2019-03-30T14:05:57.293Z,6.00
2019-03-30T14:08:29.872Z,4.78
2019-03-30T14:11:02.451Z,5.70
2019-03-30T14:13:36.620Z,5.20
2019-03-30T14:16:12.292Z,5.05
2019-03-30T14:18:44.764Z,4.60
2019-03-30T14:21:17.296Z,5.03
2019-03-30T14:23:49.781Z,4.62
2019-03-30T14:26:31.136Z,5.42
2019-03-30T14:28:56.683Z,4.30
2019-03-30T14:31:31.888Z,4.40
2019-03-30T14:34:04.410Z,5.25
2019-03-30T14:36:36.743Z,5.10
2019-03-30T14:39:09.985Z,4.92
2019-03-30T14:41:42.422Z,4.90
2019-03-30T14:44:15.135Z,4.60
2019-03-30T14:46:47.615Z,3.95
2019-03-30T14:49:20.184Z,3.72
2019-03-30T14:51:52.784Z,3.62
2019-03-30T14:54:25.294Z,3.60
2019-03-30T14:56:57.764Z,3.20
2019-03-30T14:59:30.300Z,4.55
2019-03-30T15:02:02.807Z,4.58
2019-03-30T15:04:35.298Z,4.95
2019-03-30T15:07:07.742Z,4.67
2019-03-30T15:09:40.352Z,3.85
2019-03-30T15:17:24.827Z,4.87
2019-03-30T15:19:57.334Z,5.00
2019-03-30T15:25:01.755Z,5.20
2019-03-30T15:27:34.299Z,4.17
2019-03-30T15:30:10.257Z,3.83
2019-03-30T15:32:45.535Z,4.60
2019-03-30T15:35:19.585Z,4.22
2019-03-30T15:37:52.376Z,4.97
2019-03-30T15:40:24.862Z,3.80
2019-03-30T15:42:57.330Z,4.17
2019-03-30T15:45:29.719Z,4.70
2019-03-30T15:48:02.296Z,4.03
2019-03-30T15:50:34.781Z,5.20
2019-03-30T15:53:08.359Z,4.28
2019-03-30T15:58:12.474Z,4.60
2019-03-30T16:00:44.881Z,4.50
2019-03-30T16:03:25.648Z,5.70
2019-03-30T16:05:58.307Z,4.30
2019-03-30T16:08:31.004Z,6.67
2019-03-30T16:11:03.688Z,6.55
2019-03-30T16:13:36.295Z,5.67
2019-03-30T16:16:08.776Z,6.78
2019-03-30T16:18:41.479Z,6.65
2019-03-30T16:21:14.041Z,6.65
2019-03-30T16:23:46.453Z,7.05
2019-03-30T16:28:52.218Z,6.85
2019-03-30T16:31:25.302Z,7.00
2019-03-30T16:33:57.983Z,7.30
2019-03-30T16:36:31.355Z,7.30
2019-03-30T16:41:35.849Z,7.53
2019-03-30T16:44:08.303Z,7.30
2019-03-30T16:49:12.500Z,8.55
2019-03-30T16:51:45.375Z,8.20
2019-03-30T16:56:49.903Z,8.45
2019-03-30T16:59:24.580Z,8.33
2019-03-30T17:01:58.305Z,8.30
2019-03-30T17:04:31.292Z,8.73
2019-03-30T17:12:13.477Z,8.53
2019-03-30T17:14:46.980Z,9.48
2019-03-30T17:17:19.538Z,9.00
2019-03-30T17:20:03.482Z,8.88
2019-03-30T17:22:40.753Z,9.30
2019-03-30T17:25:13.450Z,9.10
2019-03-30T17:27:58.137Z,10.05
2019-03-30T17:30:23.577Z,10.08
2019-03-30T17:32:56.289Z,10.38
2019-03-30T17:35:28.684Z,9.75
2019-03-30T17:38:01.298Z,9.93
2019-03-30T17:40:33.767Z,10.15
2019-03-30T17:43:06.719Z,10.13
2019-03-30T17:45:39.468Z,9.95
2019-03-30T17:48:14.479Z,9.25
2019-03-30T17:53:18.661Z,9.58
2019-03-30T17:55:51.300Z,9.38
2019-03-30T18:01:02.759Z,8.78
2019-03-30T18:03:34.511Z,9.63
2019-03-30T18:06:09.041Z,9.10
2019-03-30T18:08:41.866Z,9.80
2019-03-30T18:11:14.849Z,9.68
2019-03-30T18:13:47.945Z,9.20
2019-03-30T18:16:24.914Z,9.30
2019-03-30T18:18:58.401Z,9.25
2019-03-30T18:24:03.600Z,11.30
2019-03-30T18:26:36.460Z,11.43
2019-03-30T18:29:09.034Z,11.85
2019-03-30T18:33:15.069Z,12.90
2019-03-30T18:35:48.721Z,11.15
2019-03-30T18:38:22.289Z,11.57
2019-03-30T18:40:56.067Z,12.58
2019-03-30T18:43:30.414Z,10.88
2019-03-30T18:48:35.646Z,11.15
2019-03-30T18:51:08.294Z,10.53
2019-03-30T18:53:40.688Z,11.78
2019-03-30T18:56:13.055Z,11.25
2019-03-30T18:58:45.646Z,12.80
2019-03-30T19:01:18.498Z,11.38
2019-03-30T19:06:23.615Z,10.30
2019-03-30T19:08:57.403Z,10.95
2019-03-30T19:14:01.558Z,11.22
2019-03-30T19:16:34.315Z,10.65
2019-03-30T19:19:06.901Z,11.43
2019-03-30T19:21:39.341Z,12.28
2019-03-30T19:24:11.795Z,14.05
2019-03-30T19:26:44.302Z,13.00
2019-03-30T19:29:16.753Z,12.18
2019-03-30T19:31:49.301Z,13.08
2019-03-30T19:34:22.055Z,12.95
2019-03-30T19:36:54.530Z,12.78
2019-03-30T19:39:27.402Z,11.63
2019-03-30T19:42:02.063Z,13.10
2019-03-30T19:44:34.466Z,13.72
2019-03-30T19:47:07.057Z,12.07
2019-03-30T19:49:39.396Z,12.60
